sensor_id;sensor_type;location;lat;lon;timestamp;pressure;altitude;pressure_sealevel;temperature;humidity
55410;BME280;41279;43.546;16.426;2023-03-04T00:00:14;52496.41;;;-146.77;61.31
55410;BME280;41279;43.546;16.426;2023-03-04T00:02:39;52502.41;;;-146.77;63.85
55410;BME280;41279;43.546;16.426;2023-03-04T00:05:05;52470.38;;;-146.77;63.20
55410;BME280;41279;43.546;16.426;2023-03-04T00:07:31;52484.38;;;-146.77;59.22
55410;BME280;41279;43.546;16.426;2023-03-04T00:09:56;52480.38;;;-146.77;61.03
55410;BME280;41279;43.546;16.426;2023-03-04T00:12:22;52482.38;;;-146.77;58.82
55410;BME280;41279;43.546;16.426;2023-03-04T00:14:47;52472.38;;;-146.77;62.15
55410;BME280;41279;43.546;16.426;2023-03-04T00:17:13;52482.38;;;-146.77;60.19
55410;BME280;41279;43.546;16.426;2023-03-04T00:19:38;52492.41;;;-146.77;59.99
55410;BME280;41279;43.546;16.426;2023-03-04T00:22:04;52484.38;;;-146.77;60.07
55410;BME280;41279;43.546;16.426;2023-03-04T00:24:29;52482.38;;;-146.77;60.48
55410;BME280;41279;43.546;16.426;2023-03-04T00:26:55;52464.38;;;-146.77;64.00
55410;BME280;41279;43.546;16.426;2023-03-04T00:29:21;52446.34;;;-146.77;63.96
55410;BME280;41279;43.546;16.426;2023-03-04T00:31:47;52480.38;;;-146.77;65.54
55410;BME280;41279;43.546;16.426;2023-03-04T00:34:12;52458.38;;;-146.77;65.16
55410;BME280;41279;43.546;16.426;2023-03-04T00:36:38;52446.34;;;-146.77;66.30
55410;BME280;41279;43.546;16.426;2023-03-04T00:39:04;52448.34;;;-146.77;64.99
55410;BME280;41279;43.546;16.426;2023-03-04T00:41:29;52430.34;;;-146.77;64.63
55410;BME280;41279;43.546;16.426;2023-03-04T00:43:54;52458.38;;;-146.77;64.55
55410;BME280;41279;43.546;16.426;2023-03-04T00:46:20;52448.34;;;-146.77;63.75
55410;BME280;41279;43.546;16.426;2023-03-04T00:48:45;52442.34;;;-146.77;64.83
55410;BME280;41279;43.546;16.426;2023-03-04T00:51:11;52474.38;;;-146.77;63.97
55410;BME280;41279;43.546;16.426;2023-03-04T00:53:36;52482.38;;;-146.77;63.81
55410;BME280;41279;43.546;16.426;2023-03-04T00:56:02;52464.38;;;-146.77;63.93
55410;BME280;41279;43.546;16.426;2023-03-04T00:58:28;52470.38;;;-146.77;64.91
55410;BME280;41279;43.546;16.426;2023-03-04T01:00:53;52474.38;;;-146.77;64.98
55410;BME280;41279;43.546;16.426;2023-03-04T01:03:18;52448.34;;;-146.77;64.74
55410;BME280;41279;43.546;16.426;2023-03-04T01:05:44;52450.34;;;-146.77;64.97
55410;BME280;41279;43.546;16.426;2023-03-04T01:08:09;52462.38;;;-146.77;65.33
55410;BME280;41279;43.546;16.426;2023-03-04T01:10:35;52464.38;;;-146.77;64.21
55410;BME280;41279;43.546;16.426;2023-03-04T01:13:00;52446.34;;;-146.77;61.78
55410;BME280;41279;43.546;16.426;2023-03-04T01:15:26;52488.41;;;-146.77;61.72
55410;BME280;41279;43.546;16.426;2023-03-04T01:17:51;52460.38;;;-146.77;60.85
55410;BME280;41279;43.546;16.426;2023-03-04T01:20:17;52474.38;;;-146.77;63.67
55410;BME280;41279;43.546;16.426;2023-03-04T01:22:42;52448.34;;;-146.77;65.98
55410;BME280;41279;43.546;16.426;2023-03-04T01:25:08;52452.34;;;-146.77;63.68
55410;BME280;41279;43.546;16.426;2023-03-04T01:27:34;52452.34;;;-146.77;66.99
55410;BME280;41279;43.546;16.426;2023-03-04T01:29:59;52456.38;;;-146.77;67.79
55410;BME280;41279;43.546;16.426;2023-03-04T01:32:24;52422.31;;;-146.77;66.00
55410;BME280;41279;43.546;16.426;2023-03-04T01:34:50;52442.34;;;-146.77;65.51
55410;BME280;41279;43.546;16.426;2023-03-04T01:37:16;52438.34;;;-146.77;67.61
55410;BME280;41279;43.546;16.426;2023-03-04T01:39:42;52458.38;;;-146.77;66.07
55410;BME280;41279;43.546;16.426;2023-03-04T01:42:27;52470.38;;;-146.77;64.94
55410;BME280;41279;43.546;16.426;2023-03-04T01:44:54;52430.34;;;-146.77;65.99
55410;BME280;41279;43.546;16.426;2023-03-04T01:47:21;52478.38;;;-146.77;65.84
55410;BME280;41279;43.546;16.426;2023-03-04T01:49:52;52454.34;;;-146.77;65.96
55410;BME280;41279;43.546;16.426;2023-03-04T01:52:18;52442.34;;;-146.77;65.52
55410;BME280;41279;43.546;16.426;2023-03-04T01:54:44;52446.34;;;-146.77;64.59
55410;BME280;41279;43.546;16.426;2023-03-04T01:57:24;52448.34;;;-146.77;65.49
55410;BME280;41279;43.546;16.426;2023-03-04T02:00:30;52456.38;;;-146.77;66.09
55410;BME280;41279;43.546;16.426;2023-03-04T02:03:05;52446.34;;;-146.77;65.78
55410;BME280;41279;43.546;16.426;2023-03-04T02:05:33;52458.38;;;-146.77;68.03
55410;BME280;41279;43.546;16.426;2023-03-04T02:07:59;52452.34;;;-146.77;67.57
55410;BME280;41279;43.546;16.426;2023-03-04T02:10:26;52450.34;;;-146.77;66.44
55410;BME280;41279;43.546;16.426;2023-03-04T02:12:52;52454.34;;;-146.77;65.67
55410;BME280;41279;43.546;16.426;2023-03-04T02:15:18;52464.38;;;-146.77;67.09
55410;BME280;41279;43.546;16.426;2023-03-04T02:17:44;52462.38;;;-146.77;67.36
55410;BME280;41279;43.546;16.426;2023-03-04T02:20:44;52456.38;;;-146.77;66.42
55410;BME280;41279;43.546;16.426;2023-03-04T02:23:25;52456.38;;;-146.77;65.54
55410;BME280;41279;43.546;16.426;2023-03-04T02:28:42;52438.34;;;-146.77;65.63
55410;BME280;41279;43.546;16.426;2023-03-04T02:34:18;52442.34;;;-146.77;65.55
55410;BME280;41279;43.546;16.426;2023-03-04T02:36:46;52440.34;;;-146.77;64.49
55410;BME280;41279;43.546;16.426;2023-03-04T02:39:24;52448.34;;;-146.77;64.01
55410;BME280;41279;43.546;16.426;2023-03-04T02:41:54;52428.34;;;-146.77;64.62
55410;BME280;41279;43.546;16.426;2023-03-04T02:44:25;52458.38;;;-146.77;63.65
55410;BME280;41279;43.546;16.426;2023-03-04T02:46:52;52452.34;;;-146.77;63.71
55410;BME280;41279;43.546;16.426;2023-03-04T02:49:18;52448.34;;;-146.77;62.98
55410;BME280;41279;43.546;16.426;2023-03-04T02:51:44;52414.31;;;-146.77;62.84
55410;BME280;41279;43.546;16.426;2023-03-04T02:54:21;52410.31;;;-146.77;61.75
55410;BME280;41279;43.546;16.426;2023-03-04T02:56:49;52474.38;;;-146.77;61.09
55410;BME280;41279;43.546;16.426;2023-03-04T02:59:15;52446.34;;;-146.77;61.12
55410;BME280;41279;43.546;16.426;2023-03-04T03:01:41;52422.31;;;-146.77;61.20
55410;BME280;41279;43.546;16.426;2023-03-04T03:04:07;52444.34;;;-146.77;60.65
55410;BME280;41279;43.546;16.426;2023-03-04T03:06:32;52444.34;;;-146.77;60.16
55410;BME280;41279;43.546;16.426;2023-03-04T03:08:58;52472.38;;;-146.77;60.40
55410;BME280;41279;43.546;16.426;2023-03-04T03:11:23;52444.34;;;-146.77;60.85
55410;BME280;41279;43.546;16.426;2023-03-04T03:13:56;52450.34;;;-146.77;61.74
55410;BME280;41279;43.546;16.426;2023-03-04T03:16:22;52442.34;;;-146.77;60.25
55410;BME280;41279;43.546;16.426;2023-03-04T03:18:47;52446.34;;;-146.77;59.88
55410;BME280;41279;43.546;16.426;2023-03-04T03:21:20;52462.38;;;-146.77;60.34
55410;BME280;41279;43.546;16.426;2023-03-04T03:23:45;52422.31;;;-146.77;61.37
55410;BME280;41279;43.546;16.426;2023-03-04T03:26:11;52432.34;;;-146.77;61.37
55410;BME280;41279;43.546;16.426;2023-03-04T03:28:36;52444.34;;;-146.77;61.34
55410;BME280;41279;43.546;16.426;2023-03-04T03:31:02;52458.38;;;-146.77;61.66
55410;BME280;41279;43.546;16.426;2023-03-04T03:33:27;52446.34;;;-146.77;62.98
55410;BME280;41279;43.546;16.426;2023-03-04T03:35:53;52446.34;;;-146.77;63.44
55410;BME280;41279;43.546;16.426;2023-03-04T03:38:18;52442.34;;;-146.77;64.43
55410;BME280;41279;43.546;16.426;2023-03-04T03:40:44;52444.34;;;-146.77;64.13
55410;BME280;41279;43.546;16.426;2023-03-04T03:43:10;52454.34;;;-146.77;63.57
55410;BME280;41279;43.546;16.426;2023-03-04T03:45:35;52456.38;;;-146.77;63.85
55410;BME280;41279;43.546;16.426;2023-03-04T03:48:00;52408.31;;;-146.77;64.23
55410;BME280;41279;43.546;16.426;2023-03-04T03:50:26;52428.34;;;-146.77;64.46
55410;BME280;41279;43.546;16.426;2023-03-04T03:52:54;52430.34;;;-146.77;64.74
55410;BME280;41279;43.546;16.426;2023-03-04T03:55:19;52430.34;;;-146.77;63.58
55410;BME280;41279;43.546;16.426;2023-03-04T03:57:45;52418.31;;;-146.77;63.92
55410;BME280;41279;43.546;16.426;2023-03-04T04:00:11;52458.38;;;-146.77;63.44
55410;BME280;41279;43.546;16.426;2023-03-04T04:02:37;52416.31;;;-146.77;64.52
55410;BME280;41279;43.546;16.426;2023-03-04T04:05:03;52434.34;;;-146.77;64.25
55410;BME280;41279;43.546;16.426;2023-03-04T04:07:28;52436.34;;;-146.77;64.29
55410;BME280;41279;43.546;16.426;2023-03-04T04:09:54;52458.38;;;-146.77;63.72
55410;BME280;41279;43.546;16.426;2023-03-04T04:12:19;52428.34;;;-146.77;64.11
55410;BME280;41279;43.546;16.426;2023-03-04T04:14:45;52426.34;;;-146.77;64.36
55410;BME280;41279;43.546;16.426;2023-03-04T04:17:11;52444.34;;;-146.77;64.14
55410;BME280;41279;43.546;16.426;2023-03-04T04:19:38;52426.34;;;-146.77;64.42
55410;BME280;41279;43.546;16.426;2023-03-04T04:22:05;52456.38;;;-146.77;64.33
55410;BME280;41279;43.546;16.426;2023-03-04T04:24:31;52484.38;;;-146.77;63.24
55410;BME280;41279;43.546;16.426;2023-03-04T04:26:57;52426.34;;;-146.77;63.99
55410;BME280;41279;43.546;16.426;2023-03-04T04:29:23;52442.34;;;-146.77;64.28
55410;BME280;41279;43.546;16.426;2023-03-04T04:31:48;52476.38;;;-146.77;63.66
55410;BME280;41279;43.546;16.426;2023-03-04T04:34:14;52420.31;;;-146.77;63.40
55410;BME280;41279;43.546;16.426;2023-03-04T04:36:39;52418.31;;;-146.77;63.60
55410;BME280;41279;43.546;16.426;2023-03-04T04:39:05;52444.34;;;-146.77;64.14
55410;BME280;41279;43.546;16.426;2023-03-04T04:41:36;52426.34;;;-146.77;63.78
55410;BME280;41279;43.546;16.426;2023-03-04T04:44:03;52434.34;;;-146.77;63.12
55410;BME280;41279;43.546;16.426;2023-03-04T04:46:28;52454.34;;;-146.77;63.18
55410;BME280;41279;43.546;16.426;2023-03-04T04:48:54;52436.34;;;-146.77;61.91
55410;BME280;41279;43.546;16.426;2023-03-04T04:51:20;52448.34;;;-146.77;63.76
55410;BME280;41279;43.546;16.426;2023-03-04T04:53:45;52444.34;;;-146.77;63.30
55410;BME280;41279;43.546;16.426;2023-03-04T04:56:17;52434.34;;;-146.77;63.58
55410;BME280;41279;43.546;16.426;2023-03-04T04:58:43;52444.34;;;-146.77;64.21
55410;BME280;41279;43.546;16.426;2023-03-04T05:01:09;52458.38;;;-146.77;64.10
55410;BME280;41279;43.546;16.426;2023-03-04T05:03:35;52450.34;;;-146.77;63.96
55410;BME280;41279;43.546;16.426;2023-03-04T05:06:02;52452.34;;;-146.77;64.53
55410;BME280;41279;43.546;16.426;2023-03-04T05:08:28;52430.34;;;-146.77;65.11
55410;BME280;41279;43.546;16.426;2023-03-04T05:10:53;52474.38;;;-146.77;64.85
55410;BME280;41279;43.546;16.426;2023-03-04T05:13:19;52408.31;;;-146.77;63.95
55410;BME280;41279;43.546;16.426;2023-03-04T05:15:45;52436.34;;;-146.77;63.43
55410;BME280;41279;43.546;16.426;2023-03-04T05:18:11;52430.34;;;-146.77;63.34
55410;BME280;41279;43.546;16.426;2023-03-04T05:20:36;52434.34;;;-146.77;62.90
55410;BME280;41279;43.546;16.426;2023-03-04T05:23:02;52434.34;;;-146.77;62.19
55410;BME280;41279;43.546;16.426;2023-03-04T05:25:27;52452.34;;;-146.77;61.82
55410;BME280;41279;43.546;16.426;2023-03-04T05:27:53;52428.34;;;-146.77;61.45
55410;BME280;41279;43.546;16.426;2023-03-04T05:30:18;52438.34;;;-146.77;61.67
55410;BME280;41279;43.546;16.426;2023-03-04T05:32:44;52440.34;;;-146.77;61.67
55410;BME280;41279;43.546;16.426;2023-03-04T05:35:09;52442.34;;;-146.77;61.39
55410;BME280;41279;43.546;16.426;2023-03-04T05:37:35;52416.31;;;-146.77;62.46
55410;BME280;41279;43.546;16.426;2023-03-04T05:40:00;52412.31;;;-146.77;60.99
55410;BME280;41279;43.546;16.426;2023-03-04T05:42:26;52464.38;;;-146.77;60.08
55410;BME280;41279;43.546;16.426;2023-03-04T05:44:51;52438.34;;;-146.77;59.93
55410;BME280;41279;43.546;16.426;2023-03-04T05:47:17;52450.34;;;-146.77;59.81
55410;BME280;41279;43.546;16.426;2023-03-04T05:49:42;52440.34;;;-146.77;57.96
55410;BME280;41279;43.546;16.426;2023-03-04T05:52:09;52424.31;;;-146.77;57.69
55410;BME280;41279;43.546;16.426;2023-03-04T05:54:34;52446.34;;;-146.77;57.85
55410;BME280;41279;43.546;16.426;2023-03-04T05:57:00;52414.31;;;-146.77;57.38
55410;BME280;41279;43.546;16.426;2023-03-04T05:59:26;52418.31;;;-146.77;57.57
55410;BME280;41279;43.546;16.426;2023-03-04T06:01:52;52396.31;;;-146.77;55.76
55410;BME280;41279;43.546;16.426;2023-03-04T06:04:17;52426.34;;;-146.77;54.93
55410;BME280;41279;43.546;16.426;2023-03-04T06:06:43;52418.31;;;-146.77;55.77
55410;BME280;41279;43.546;16.426;2023-03-04T06:09:10;52446.34;;;-146.77;56.12
55410;BME280;41279;43.546;16.426;2023-03-04T06:11:36;52406.31;;;-146.77;55.13
55410;BME280;41279;43.546;16.426;2023-03-04T06:14:02;52394.28;;;-146.77;54.63
55410;BME280;41279;43.546;16.426;2023-03-04T06:16:27;52410.31;;;-146.77;54.05
55410;BME280;41279;43.546;16.426;2023-03-04T06:18:53;52424.31;;;-146.77;52.52
55410;BME280;41279;43.546;16.426;2023-03-04T06:21:18;52414.31;;;-146.77;53.15
55410;BME280;41279;43.546;16.426;2023-03-04T06:23:43;52412.31;;;-146.77;51.68
55410;BME280;41279;43.546;16.426;2023-03-04T06:26:09;52420.31;;;-146.77;51.70
55410;BME280;41279;43.546;16.426;2023-03-04T06:28:42;52440.34;;;-146.77;51.33
55410;BME280;41279;43.546;16.426;2023-03-04T06:31:08;52430.34;;;-146.77;51.15
55410;BME280;41279;43.546;16.426;2023-03-04T06:33:33;52438.34;;;-146.77;50.98
55410;BME280;41279;43.546;16.426;2023-03-04T06:35:59;52440.34;;;-146.77;51.08
55410;BME280;41279;43.546;16.426;2023-03-04T06:38:25;52452.34;;;-146.77;51.46
55410;BME280;41279;43.546;16.426;2023-03-04T06:40:51;52438.34;;;-146.77;51.92
55410;BME280;41279;43.546;16.426;2023-03-04T06:43:17;52420.31;;;-146.77;51.40
55410;BME280;41279;43.546;16.426;2023-03-04T06:45:43;52446.34;;;-146.77;50.21
55410;BME280;41279;43.546;16.426;2023-03-04T06:48:08;52442.34;;;-146.77;50.24
55410;BME280;41279;43.546;16.426;2023-03-04T06:50:34;52446.34;;;-146.77;48.80
55410;BME280;41279;43.546;16.426;2023-03-04T06:52:59;52414.31;;;-146.77;49.24
55410;BME280;41279;43.546;16.426;2023-03-04T06:55:25;52426.34;;;-146.77;50.34
55410;BME280;41279;43.546;16.426;2023-03-04T06:57:50;52434.34;;;-146.77;49.93
55410;BME280;41279;43.546;16.426;2023-03-04T07:00:16;52416.31;;;-146.77;50.10
55410;BME280;41279;43.546;16.426;2023-03-04T07:02:42;52438.34;;;-146.77;50.03
55410;BME280;41279;43.546;16.426;2023-03-04T07:05:09;52420.31;;;-146.77;49.24
55410;BME280;41279;43.546;16.426;2023-03-04T07:07:36;52442.34;;;-146.77;48.81
55410;BME280;41279;43.546;16.426;2023-03-04T07:10:01;52474.38;;;-146.77;48.26
55410;BME280;41279;43.546;16.426;2023-03-04T07:12:27;52468.38;;;-146.77;47.78
55410;BME280;41279;43.546;16.426;2023-03-04T07:14:53;52430.34;;;-146.77;48.10
55410;BME280;41279;43.546;16.426;2023-03-04T07:17:18;52440.34;;;-146.77;47.24
55410;BME280;41279;43.546;16.426;2023-03-04T07:19:44;52442.34;;;-146.77;46.97
55410;BME280;41279;43.546;16.426;2023-03-04T07:22:09;52458.38;;;-146.77;47.43
55410;BME280;41279;43.546;16.426;2023-03-04T07:24:35;52484.38;;;-146.77;47.04
55410;BME280;41279;43.546;16.426;2023-03-04T07:27:00;52436.34;;;-146.77;46.90
55410;BME280;41279;43.546;16.426;2023-03-04T07:29:26;52454.34;;;-146.77;46.87
55410;BME280;41279;43.546;16.426;2023-03-04T07:31:52;52468.38;;;-146.77;47.53
55410;BME280;41279;43.546;16.426;2023-03-04T07:34:17;52430.34;;;-146.77;47.39
55410;BME280;41279;43.546;16.426;2023-03-04T07:36:43;52454.34;;;-146.77;46.55
55410;BME280;41279;43.546;16.426;2023-03-04T07:39:10;52446.34;;;-146.77;46.74
55410;BME280;41279;43.546;16.426;2023-03-04T07:41:38;52474.38;;;-146.77;46.35
55410;BME280;41279;43.546;16.426;2023-03-04T07:44:05;52426.34;;;-146.77;45.82
55410;BME280;41279;43.546;16.426;2023-03-04T07:46:31;52472.38;;;-146.77;45.72
55410;BME280;41279;43.546;16.426;2023-03-04T07:48:56;52462.38;;;-146.77;45.65
55410;BME280;41279;43.546;16.426;2023-03-04T07:51:24;52456.38;;;-146.77;45.36
55410;BME280;41279;43.546;16.426;2023-03-04T07:53:52;52474.38;;;-146.77;45.76
55410;BME280;41279;43.546;16.426;2023-03-04T07:56:20;52504.41;;;-146.77;45.24
55410;BME280;41279;43.546;16.426;2023-03-04T07:58:46;52466.38;;;-146.77;45.12
55410;BME280;41279;43.546;16.426;2023-03-04T08:01:14;52490.41;;;-146.77;45.10
55410;BME280;41279;43.546;16.426;2023-03-04T08:03:40;52464.38;;;-146.77;44.73
55410;BME280;41279;43.546;16.426;2023-03-04T08:06:10;52498.41;;;-146.77;44.31
55410;BME280;41279;43.546;16.426;2023-03-04T08:08:37;52486.41;;;-146.77;42.96
55410;BME280;41279;43.546;16.426;2023-03-04T08:11:07;52460.38;;;-146.77;44.21
55410;BME280;41279;43.546;16.426;2023-03-04T08:13:34;52466.38;;;-146.77;44.38
55410;BME280;41279;43.546;16.426;2023-03-04T08:15:59;52478.38;;;-146.77;43.97
55410;BME280;41279;43.546;16.426;2023-03-04T08:18:25;52472.38;;;-146.77;43.37
55410;BME280;41279;43.546;16.426;2023-03-04T08:20:50;52466.38;;;-146.77;43.49
55410;BME280;41279;43.546;16.426;2023-03-04T08:23:17;52470.38;;;-146.77;42.25
55410;BME280;41279;43.546;16.426;2023-03-04T08:25:42;52460.38;;;-146.77;42.49
55410;BME280;41279;43.546;16.426;2023-03-04T08:28:08;52508.41;;;-146.77;41.33
55410;BME280;41279;43.546;16.426;2023-03-04T08:30:35;52438.34;;;-146.77;42.63
55410;BME280;41279;43.546;16.426;2023-03-04T08:33:02;52430.34;;;-146.77;42.72
55410;BME280;41279;43.546;16.426;2023-03-04T08:35:27;52488.41;;;-146.77;42.25
55410;BME280;41279;43.546;16.426;2023-03-04T08:37:53;52478.38;;;-146.77;41.43
55410;BME280;41279;43.546;16.426;2023-03-04T08:40:19;52504.41;;;-146.77;41.31
55410;BME280;41279;43.546;16.426;2023-03-04T08:42:44;52470.38;;;-146.77;41.79
55410;BME280;41279;43.546;16.426;2023-03-04T08:45:10;52476.38;;;-146.77;40.63
55410;BME280;41279;43.546;16.426;2023-03-04T08:47:36;52480.38;;;-146.77;40.68
55410;BME280;41279;43.546;16.426;2023-03-04T08:50:03;52482.38;;;-146.77;40.28
55410;BME280;41279;43.546;16.426;2023-03-04T08:52:29;52498.41;;;-146.77;40.11
55410;BME280;41279;43.546;16.426;2023-03-04T08:54:55;52474.38;;;-146.77;39.82
55410;BME280;41279;43.546;16.426;2023-03-04T08:57:20;52486.41;;;-146.77;39.83
55410;BME280;41279;43.546;16.426;2023-03-04T08:59:46;52474.38;;;-146.77;40.20
55410;BME280;41279;43.546;16.426;2023-03-04T09:02:11;52498.41;;;-146.77;40.19
55410;BME280;41279;43.546;16.426;2023-03-04T09:04:36;52524.44;;;-146.77;39.81
55410;BME280;41279;43.546;16.426;2023-03-04T09:07:02;52478.38;;;-146.77;39.80
55410;BME280;41279;43.546;16.426;2023-03-04T09:09:27;52480.38;;;-146.77;40.54
55410;BME280;41279;43.546;16.426;2023-03-04T09:12:00;52490.41;;;-146.77;40.36
55410;BME280;41279;43.546;16.426;2023-03-04T09:14:33;52498.41;;;-146.77;39.89
55410;BME280;41279;43.546;16.426;2023-03-04T09:17:01;52520.44;;;-146.77;39.88
55410;BME280;41279;43.546;16.426;2023-03-04T09:19:27;52522.44;;;-146.77;38.84
55410;BME280;41279;43.546;16.426;2023-03-04T09:22:00;52510.41;;;-146.77;39.24
55410;BME280;41279;43.546;16.426;2023-03-04T09:24:26;52526.44;;;-146.77;38.68
55410;BME280;41279;43.546;16.426;2023-03-04T09:26:52;52466.38;;;-146.77;38.85
55410;BME280;41279;43.546;16.426;2023-03-04T09:29:32;52532.44;;;-146.77;38.66
55410;BME280;41279;43.546;16.426;2023-03-04T09:31:57;52450.34;;;-146.77;39.83
55410;BME280;41279;43.546;16.426;2023-03-04T09:34:22;52506.41;;;-146.77;38.74
55410;BME280;41279;43.546;16.426;2023-03-04T09:36:48;52506.41;;;-146.77;39.08
55410;BME280;41279;43.546;16.426;2023-03-04T09:39:13;52498.41;;;-146.77;38.15
55410;BME280;41279;43.546;16.426;2023-03-04T09:41:42;52524.44;;;-146.77;37.43
55410;BME280;41279;43.546;16.426;2023-03-04T09:44:18;52506.41;;;-146.77;37.79
55410;BME280;41279;43.546;16.426;2023-03-04T09:46:46;52532.44;;;-146.77;36.96
55410;BME280;41279;43.546;16.426;2023-03-04T09:49:13;52568.47;;;-146.77;36.77
55410;BME280;41279;43.546;16.426;2023-03-04T09:54:49;52538.44;;;-146.77;35.76
55410;BME280;41279;43.546;16.426;2023-03-04T09:57:25;52518.44;;;-146.77;34.24
55410;BME280;41279;43.546;16.426;2023-03-04T09:59:56;52562.47;;;-146.77;33.76
55410;BME280;41279;43.546;16.426;2023-03-04T10:05:13;52574.47;;;-146.77;33.50
55410;BME280;41279;43.546;16.426;2023-03-04T10:07:42;52618.53;;;-146.77;32.31
55410;BME280;41279;43.546;16.426;2023-03-04T10:10:15;52666.59;;;-146.77;32.64
55410;BME280;41279;43.546;16.426;2023-03-04T10:12:43;52636.56;;;-146.77;37.54
55410;BME280;41279;43.546;16.426;2023-03-04T10:15:31;52616.53;;;-146.77;40.11
55410;BME280;41279;43.546;16.426;2023-03-04T10:18:15;52590.50;;;-146.77;37.58
55410;BME280;41279;43.546;16.426;2023-03-04T10:23:28;52576.50;;;-146.77;41.60
55410;BME280;41279;43.546;16.426;2023-03-04T10:25:54;52548.47;;;-146.77;38.96
55410;BME280;41279;43.546;16.426;2023-03-04T10:28:28;52604.50;;;-146.77;39.39
55410;BME280;41279;43.546;16.426;2023-03-04T10:33:32;52606.53;;;-146.77;40.31
55410;BME280;41279;43.546;16.426;2023-03-04T10:36:04;52602.50;;;-146.77;37.50
55410;BME280;41279;43.546;16.426;2023-03-04T10:38:35;52592.50;;;-146.77;40.12
55410;BME280;41279;43.546;16.426;2023-03-04T10:41:20;52620.53;;;-146.77;40.14
55410;BME280;41279;43.546;16.426;2023-03-04T10:44:00;52598.50;;;-146.77;40.35
55410;BME280;41279;43.546;16.426;2023-03-04T10:46:26;52646.56;;;-146.77;37.85
55410;BME280;41279;43.546;16.426;2023-03-04T10:48:53;52650.56;;;-146.77;36.72
55410;BME280;41279;43.546;16.426;2023-03-04T10:51:21;52590.50;;;-146.77;36.29
55410;BME280;41279;43.546;16.426;2023-03-04T10:53:55;52632.53;;;-146.77;37.02
55410;BME280;41279;43.546;16.426;2023-03-04T10:56:39;52630.53;;;-146.77;36.66
55410;BME280;41279;43.546;16.426;2023-03-04T11:02:28;52684.59;;;-146.77;36.74
55410;BME280;41279;43.546;16.426;2023-03-04T11:07:27;52752.69;;;-146.77;35.91
55410;BME280;41279;43.546;16.426;2023-03-04T11:09:52;52718.63;;;-146.77;35.47
55410;BME280;41279;43.546;16.426;2023-03-04T11:12:21;52680.59;;;-146.77;35.88
55410;BME280;41279;43.546;16.426;2023-03-04T11:14:55;52652.56;;;-146.77;35.52
55410;BME280;41279;43.546;16.426;2023-03-04T11:17:30;52686.59;;;-146.77;35.05
55410;BME280;41279;43.546;16.426;2023-03-04T11:22:44;52758.69;;;-146.77;34.27
55410;BME280;41279;43.546;16.426;2023-03-04T11:25:23;52734.66;;;-146.77;34.15
55410;BME280;41279;43.546;16.426;2023-03-04T11:27:55;52700.63;;;-146.77;34.10
55410;BME280;41279;43.546;16.426;2023-03-04T11:30:35;52692.63;;;-146.77;33.76
55410;BME280;41279;43.546;16.426;2023-03-04T11:35:44;52740.66;;;-146.77;32.78
55410;BME280;41279;43.546;16.426;2023-03-04T11:38:31;52774.69;;;-146.77;32.94
55410;BME280;41279;43.546;16.426;2023-03-04T11:41:03;52718.63;;;-146.77;32.49
55410;BME280;41279;43.546;16.426;2023-03-04T11:43:36;52662.56;;;-146.77;34.27
55410;BME280;41279;43.546;16.426;2023-03-04T11:46:35;52782.72;;;-146.77;35.63
55410;BME280;41279;43.546;16.426;2023-03-04T11:52:13;52678.59;;;-146.77;35.84
55410;BME280;41279;43.546;16.426;2023-03-04T11:55:00;52674.59;;;-146.77;36.56
55410;BME280;41279;43.546;16.426;2023-03-04T12:03:18;52616.53;;;-146.77;38.83
55410;BME280;41279;43.546;16.426;2023-03-04T12:08:23;52676.59;;;-146.77;41.94
55410;BME280;41279;43.546;16.426;2023-03-04T12:11:01;52684.59;;;-146.77;42.51
55410;BME280;41279;43.546;16.426;2023-03-04T12:16:23;52680.59;;;-146.77;42.39
55410;BME280;41279;43.546;16.426;2023-03-04T12:32:42;52666.59;;;-146.77;36.83
55410;BME280;41279;43.546;16.426;2023-03-04T12:40:29;52680.59;;;-146.77;40.93
55410;BME280;41279;43.546;16.426;2023-03-04T12:46:10;52704.63;;;-146.77;41.07
55410;BME280;41279;43.546;16.426;2023-03-04T12:48:47;52726.66;;;-146.77;39.87
55410;BME280;41279;43.546;16.426;2023-03-04T12:51:24;52730.66;;;-146.77;39.21
55410;BME280;41279;43.546;16.426;2023-03-04T12:54:11;52770.69;;;-146.77;35.96
55410;BME280;41279;43.546;16.426;2023-03-04T12:59:05;52676.59;;;-146.77;37.71
55410;BME280;41279;43.546;16.426;2023-03-04T13:01:38;52678.59;;;-146.77;38.15
55410;BME280;41279;43.546;16.426;2023-03-04T13:04:16;52714.63;;;-146.77;39.51
55410;BME280;41279;43.546;16.426;2023-03-04T13:07:13;52664.59;;;-146.77;35.45
55410;BME280;41279;43.546;16.426;2023-03-04T13:09:52;52658.56;;;-146.77;38.49
55410;BME280;41279;43.546;16.426;2023-03-04T13:12:21;52690.59;;;-146.77;38.57
55410;BME280;41279;43.546;16.426;2023-03-04T13:17:48;52706.63;;;-146.77;40.73
55410;BME280;41279;43.546;16.426;2023-03-04T13:28:05;52628.53;;;-146.77;47.49
55410;BME280;41279;43.546;16.426;2023-03-04T13:41:15;52642.56;;;-146.77;44.43
55410;BME280;41279;43.546;16.426;2023-03-04T13:43:55;52630.53;;;-146.77;46.51
55410;BME280;41279;43.546;16.426;2023-03-04T13:56:32;52582.50;;;-146.77;62.70
55410;BME280;41279;43.546;16.426;2023-03-04T14:01:53;52564.47;;;-146.77;62.08
55410;BME280;41279;43.546;16.426;2023-03-04T14:06:53;52598.50;;;-146.77;63.21
55410;BME280;41279;43.546;16.426;2023-03-04T14:09:27;52568.47;;;-146.77;62.08
55410;BME280;41279;43.546;16.426;2023-03-04T14:11:55;52628.53;;;-146.77;65.44
55410;BME280;41279;43.546;16.426;2023-03-04T14:14:29;52564.47;;;-146.77;65.05
55410;BME280;41279;43.546;16.426;2023-03-04T14:16:59;52572.47;;;-146.77;62.90
55410;BME280;41279;43.546;16.426;2023-03-04T14:19:29;52648.56;;;-146.77;68.48